Главная страница
METAR-TAF:

METAR-TAF

Аэропорты :

Кутаиси, Грузия

широта: 42-10-35N, долгота: 042-28-57E, высота над уровнем моря: 68 м

Текущие метеонаблюдения

Эта сводка был подготовлена 23 минут назад, в 07:00 UTC
Ветер 15 Узел от восточный
Температура 21°C
Влажность 46%
Давление 1015 hPa
Видимость 10 км и более
Рассеянная облачность на высоте 4700 фута

METAR: UGKO 290700Z 08015KT 9999 BKN047 21/09 Q1015 R07/09//70 NOSIG

Время: 11:23 (07:23 UTC)

Прогноз

Эта сводка был подготовлена 2 часа и 23 минут назад, в 05:00 UTC
Прогноз действительный с 29-го 06 UTC до 30-го 06 UTC
Ветер 10 Узел от восточный
Видимость 10 км и более
Отдельные облака на высоте 4000 фута
временами
С 29-го 12 UTC до 29-го 20 UTC
Ветер 2 Узел переменных направлений
Отдельные облака на высоте 2300 фута, Кучево-дождевые.

TAF: UGKO 290500Z 2906/3006 08010KT 9999 SCT040 TX26/2912Z TN14/2920Z TEMPO 2912/2920 VRB02KT SCT023CB

Метеонаблюдения и прогнозы для более 4000 аэропортов (сводки METAR и TAF).

Имеющиеся станции представлены на карте желтыми и красными точками.

Чтобы увидеть название станции, наведите на нее мышь.

Затем щелкните, чтобы увидеть метеонаблюдения и метеопрогнозы.

Управление картой: чтобы увеличить масштаб, щелкните зеленые кнопки с черным крестиком; чтобы уменьшить масштаб, щелкните зеленую кнопку с тире; для просмотра соседних карт щелкайте зеленые стрелки.


METAR-TAF: